• Join FlightAware (Why Join?)
  • Login
  • US Flag 
10:25AM EDT


 

Airport Tracker/Info


-or-


 

Live Flight TrackerFlight Track Log ✈ DAL1981 ✈ 23-Jun-2013 ✈ KSMF - KMSP

Flight Track Log - Related Links

Times and Time Zones

All times are in EDT time to prevent confusion due to time zone crossing. See the DAL1981 flight status page for this flight to view local times or setup timezone preferences in your user account.

Time Position Orientation Groundspeed Altitude Reporting Facility
EDT Latitude Longitude Course Direction KTS MPH feet Rate Location/Type
03:47PM 38.6667 -121.5667 78° East 161 185 1,600  Level Northern Cal TRACON
03:48PM 38.6333 -121.5167 130° Southeast 219 252 2,500 1,620 Climbing Northern Cal TRACON
03:49PM 38.4964 -121.2583 80° East  Level FlightAware Approximate
03:49PM 38.6000 -121.4333 117° Southeast 284 327 4,700  Level Northern Cal TRACON
03:50PM 38.5330 -121.1017 76° East  Level FlightAware Approximate
03:50PM 38.6108 -121.3381 82° East 296 341 7,600  Level Oakland Center
03:51PM 38.5625 -120.9420 78° East  Level FlightAware Approximate
03:51PM 38.6222 -121.2358 82° East 294 338 10,400  Level Oakland Center
03:52PM 38.5893 -120.7815 78° East  Level FlightAware Approximate
03:52PM 38.6339 -121.1039 84° East 336 387 11,600  Level Oakland Center
03:53PM 38.6478 -120.9647 83° East 388 447 13,600 2,340 Climbing Oakland Center
03:54PM 38.6614 -120.8272 83° East 389 448 16,400 2,520 Climbing Oakland Center
03:55PM 38.6736 -120.6953 83° East 377 434 18,800 1,800 Climbing Oakland Center
03:56PM 38.6864 -120.5578 83° East 385 443 20,200 1,260 Climbing Oakland Center
03:57PM 38.7178 -120.4181 74° East 412 474 21,500 1,140 Climbing Oakland Center
03:58PM 38.7681 -120.2792 65° Northeast 425 489 22,600 1,020 Climbing Oakland Center
03:59PM 38.8211 -120.1344 65° Northeast 442 509 23,600 960 Climbing Oakland Center
04:00PM 38.8758 -119.9842 65° Northeast 461 531 24,600 900 Climbing Oakland Center
04:01PM 38.9422 -119.7986 65° Northeast 474 545 25,500 1,020 Climbing Oakland Center
04:02PM 39.0017 -119.6342 65° Northeast 490 564 26,700 1,020 Climbing Oakland Center
04:03PM 39.0581 -119.4744 66° East 491 565 27,600 720 Climbing Oakland Center
04:04PM 39.1156 -119.3133 65° Northeast 495 570 28,300 780 Climbing Oakland Center
04:05PM 39.1722 -119.1503 66° East 500 575 29,200 1,020 Climbing Oakland Center
04:06PM 39.2342 -118.9739 66° East 501 577 30,400 1,020 Climbing Oakland Center
04:07PM 39.2903 -118.8122 66° East 495 570 31,400 1,260 Climbing Oakland Center
04:08PM 39.3436 -118.6525 67° East 486 559 33,100 1,140 Climbing Oakland Center
04:09PM 39.3989 -118.4964 65° Northeast 478 550 33,800 660 Climbing Oakland Center
04:10PM 39.4536 -118.3369 66° East 472 543 34,500 540 Climbing Oakland Center
04:11PM 39.5053 -118.1836 66° East 469 540 35,000 240 Climbing Oakland Center
04:12PM 39.5569 -118.0308 66° East 465 535 35,000  Level Oakland Center
04:13PM 39.6086 -117.8767 66° East 467 537 35,000  Level Oakland Center
04:14PM 39.6728 -117.6861 66° East 480 552 35,000  Level Oakland Center
04:15PM 39.7219 -117.5375 67° East 480 552 35,000 -60 Level Oakland Center
04:16PM 39.7708 -117.3869 67° East 476 548 34,900 -60 Descending Oakland Center
04:17PM 39.8275 -117.2108 67° East 475 547 34,900  Level Oakland Center
04:18PM 39.8778 -117.0608 66° East 474 545 35,000  Climbing Oakland Center
04:19PM 39.9358 -116.8850 67° East 476 548 35,000  Level Oakland Center
04:20PM 39.9842 -116.7319 68° East 479 551 35,000  Level Oakland Center
04:21PM 40.0342 -116.5753 67° East 485 558 35,000  Level Salt Lake Center
04:22PM 40.0836 -116.4222 67° East 482 555 35,000  Level Salt Lake Center
04:23PM 40.1397 -116.2425 68° East 480 552 35,000  Level Salt Lake Center
04:24PM 40.1900 -116.0867 67° East 486 559 35,000  Level Salt Lake Center
04:25PM 40.2456 -115.9069 68° East 482 555 35,000  Level Salt Lake Center
04:26PM 40.2953 -115.7525 67° East 482 555 35,000  Level Salt Lake Center
04:28PM 40.3533 -115.5728 67° East 481 554 35,000  Level Salt Lake Center
04:29PM 40.4000 -115.4183 68° East 478 550 35,000  Level Salt Lake Center
04:30PM 40.4547 -115.2389 68° East 475 547 35,000  Level Salt Lake Center
04:31PM 40.5022 -115.0844 68° East 476 548 35,000  Level Salt Lake Center
04:32PM 40.5572 -114.9056 68° East 474 545 35,000  Level Salt Lake Center
04:33PM 40.6050 -114.7425 69° East 473 544 35,000  Level Salt Lake Center
04:34PM 40.6547 -114.5817 68° East 474 545 35,000  Level Salt Lake Center
04:35PM 40.7031 -114.4208 68° East 474 545 35,000  Level Salt Lake Center
04:36PM 40.7489 -114.2617 69° East 469 540 35,000  Level Salt Lake Center
04:37PM 40.7942 -114.1000 70° East 469 540 35,000  Level Salt Lake Center
04:38PM 40.8417 -113.9394 69° East 470 541 35,000  Level Salt Lake Center
04:39PM 40.8967 -113.7464 69° East 470 541 35,000  Level Salt Lake Center
04:40PM 40.9422 -113.5853 69° East 469 540 35,000  Level Salt Lake Center
04:41PM 40.9875 -113.4222 70° East 472 543 35,000  Level Salt Lake Center
04:42PM 41.0344 -113.2606 69° East 472 543 35,000  Level Salt Lake Center
04:43PM 41.0786 -113.0975 70° East 472 543 35,000  Level Salt Lake Center
04:44PM 41.1244 -112.9344 69° East 473 544 35,000  Level Salt Lake Center
04:45PM 41.1789 -112.7386 70° East 471 542 35,000  Level Salt Lake Center
04:46PM 41.2242 -112.5764 70° East 468 539 35,000  Level Salt Lake Center
04:47PM 41.2689 -112.4122 70° East 471 542 35,000  Level Salt Lake Center
04:48PM 41.3139 -112.2475 70° East 472 543 35,000  Level Salt Lake Center
04:49PM 41.3586 -112.0808 70° East 473 544 35,000  Level Salt Lake Center
04:50PM 41.4039 -111.9142 70° East 475 547 35,000  Level Salt Lake Center
04:51PM 41.4478 -111.7469 71° East 475 547 35,000  Level Salt Lake Center
04:52PM 41.4922 -111.5800 70° East 475 547 35,000  Level Salt Lake Center
04:53PM 41.5358 -111.4133 71° East 474 545 35,000  Level Salt Lake Center
04:54PM 41.5872 -111.2142 71° East 471 542 35,000  Level Salt Lake Center
04:55PM 41.6306 -111.0464 71° East 476 548 35,000  Level Salt Lake Center
04:56PM 41.6733 -110.8828 71° East 478 550 35,000  Level Salt Lake Center
04:57PM 41.7206 -110.6944 71° East 479 551 35,000  Level Salt Lake Center
04:58PM 41.7622 -110.5325 71° East 480 552 35,000  Level Salt Lake Center
04:59PM 41.8106 -110.3453 71° East 478 550 35,000  Level Salt Lake Center
05:01PM 41.8508 -110.1836 71° East 478 550 35,000  Level Salt Lake Center
05:02PM 41.8914 -110.0214 71° East 479 551 35,000  Level Salt Lake Center
05:03PM 41.9378 -109.8339 72° East 475 547 35,000  Level Salt Lake Center
05:04PM 41.9772 -109.6706 72° East 477 549 35,000  Level Salt Lake Center
05:05PM 42.0244 -109.4797 72° East 481 554 35,000  Level Salt Lake Center
05:06PM 42.0650 -109.3153 72° East 481 554 35,000  Level Salt Lake Center
05:07PM 42.1103 -109.1228 72° East 482 555 35,000  Level Salt Lake Center
05:08PM 42.1492 -108.9575 72° East 482 555 35,000  Level Salt Lake Center
05:09PM 42.1886 -108.7944 72° East 479 551 35,000  Level Salt Lake Center
05:10PM 42.2336 -108.6003 73° East 483 556 35,000  Level Salt Lake Center
05:11PM 42.2725 -108.4336 72° East 485 558 35,000  Level Salt Lake Center
05:12PM 42.3181 -108.2394 72° East 486 559 35,000  Level Salt Lake Center
05:13PM 42.3556 -108.0725 73° East 485 558 35,000  Level Salt Lake Center
05:14PM 42.4006 -107.8756 73° East 490 564 35,000  Level Salt Lake Center
05:15PM 42.4386 -107.7058 73° East 492 566 35,000  Level Salt Lake Center
05:16PM 42.4828 -107.5067 73° East 493 567 35,000  Level Salt Lake Center
05:17PM 42.5208 -107.3372 73° East 493 567 35,000  Level Salt Lake Center
05:18PM 42.5506 -107.1939 74° East 491 565 35,000  Level Denver Center
05:19PM 42.5872 -107.0233 74° East 492 566 35,000  Level Denver Center
05:20PM 42.6289 -106.8325 73° East 494 568 35,000  Level Denver Center
05:21PM 42.6642 -106.6603 74° East 495 570 35,000  Level Denver Center
05:22PM 42.7069 -106.4592 74° East 495 570 35,000  Level Denver Center
05:23PM 42.7447 -106.2861 73° East 496 571 35,000  Level Denver Center
05:24PM 42.7856 -106.0839 75° East 496 571 35,000  Level Denver Center
05:25PM 42.8219 -105.9097 74° East 498 573 35,000  Level Denver Center
05:26PM 42.8633 -105.7042 75° East 502 578 35,000  Level Denver Center
05:27PM 42.8994 -105.5275 74° East 504 580 35,000  Level Denver Center
05:28PM 42.9353 -105.3517 74° East 500 575 35,000  Level Denver Center
05:29PM 42.9747 -105.1453 75° East 503 579 35,000  Level Denver Center
05:30PM 43.0100 -104.9678 75° East 503 579 35,000  Level Denver Center
05:31PM 43.0508 -104.7592 75° East 504 580 35,000  Level Denver Center
05:32PM 43.0794 -104.6092 75° East 505 581 35,000  Level Denver Center
05:33PM 43.1200 -104.3978 75° East 508 585 35,000  Level Denver Center
05:34PM 43.1589 -104.1872 76° East 510 587 35,000  Level Denver Center
05:35PM 43.1928 -104.0064 76° East 510 587 35,000  Level Denver Center
05:37PM 43.2328 -103.7942 75° East 512 589 35,000  Level Denver Center
05:38PM 43.2711 -103.5850 76° East 509 586 35,000  Level Denver Center
05:39PM 43.3089 -103.3731 76° East 509 586 35,000  Level Denver Center
05:40PM 43.3417 -103.1906 76° East 514 592 35,000  Level Denver Center
05:41PM 43.3778 -102.9772 77° East 515 593 35,000  Level Denver Center
05:42PM 43.4103 -102.7964 76° East 515 593 35,000  Level Denver Center
05:43PM 43.4481 -102.5794 76° East 515 593 35,000  Level Denver Center
05:44PM 43.4783 -102.3953 77° East 519 597 35,000  Level Denver Center
05:45PM 43.5122 -102.1769 78° East 520 598 35,000  Level Denver Center
05:46PM 43.5467 -101.9947 75° East 514 592 35,000  Level Denver Center
05:47PM 43.5722 -101.8417 77° East 513 590 35,000  Level Denver Center
05:48PM 43.6103 -101.6117 77° East 514 592 35,000  Level Denver Center
05:48PM 43.6286 -101.4939 78° East 519 597 35,000  Level Minneapolis Center
05:49PM 43.6603 -101.3003 77° East 519 597 35,000  Level Minneapolis Center
05:51PM 43.6903 -101.1072 78° East 518 596 35,000  Level Minneapolis Center
05:52PM 43.7272 -100.8736 78° East 519 597 35,000  Level Minneapolis Center
05:53PM 43.7561 -100.6786 78° East 520 598 35,000  Level Minneapolis Center
05:54PM 43.7917 -100.4433 78° East 522 601 35,000  Level Minneapolis Center
05:55PM 43.8214 -100.2506 78° East 520 598 35,000  Level Minneapolis Center
05:56PM 43.8511 -100.0572 78° East 518 596 35,000  Level Minneapolis Center
05:57PM 43.8806 -99.8614 78° East 520 598 35,000  Level Minneapolis Center
05:58PM 43.9133 -99.6231 79° East 525 604 35,000  Level Minneapolis Center
05:59PM 43.9419 -99.4247 79° East 526 605 35,000  Level Minneapolis Center
06:00PM 43.9700 -99.2267 79° East 526 605 35,000  Level Minneapolis Center
06:01PM 43.9986 -99.0286 79° East 526 605 35,000  Level Minneapolis Center
06:02PM 44.0258 -98.8328 79° East 522 601 35,000  Level Minneapolis Center
06:03PM 44.0550 -98.6147 79° East 522 601 35,000  Level Minneapolis Center
06:04PM 44.0822 -98.4153 79° East 525 604 35,000  Level Minneapolis Center
06:05PM 44.1069 -98.2175 80° East 523 602 35,000  Level Minneapolis Center
06:06PM 44.1328 -98.0206 80° East 520 598 35,000  Level Minneapolis Center
06:07PM 44.1594 -97.8217 79° East 524 603 35,000  Level Minneapolis Center
06:08PM 44.1886 -97.5850 80° East 519 597 35,000  Level Minneapolis Center
06:09PM 44.2131 -97.3867 80° East 521 600 35,000  Level Minneapolis Center
06:10PM 44.2369 -97.1900 80° East 518 596 35,000  Level Minneapolis Center
06:11PM 44.2603 -96.9933 81° East 515 593 35,000 -420 Level Minneapolis Center
06:12PM 44.2833 -96.7986 81° East 511 588 34,200 -1,020 Descending Minneapolis Center
06:13PM 44.3064 -96.6019 81° East 511 588 33,000 -1,500 Descending Minneapolis Center
06:14PM 44.3300 -96.4019 81° East 516 594 31,100 -1,500 Descending Minneapolis Center
06:15PM 44.3550 -96.1936 80° East 527 606 30,000 -1,140 Descending Minneapolis Center
06:17PM 44.3817 -95.9458 81° East 529 609 28,800 -1,080 Descending Minneapolis Center
06:18PM 44.4036 -95.7456 81° East 521 600 27,900 -960 Descending Minneapolis Center
06:19PM 44.4239 -95.5558 81° East 499 574 26,900 -960 Descending Minneapolis Center
06:20PM 44.4431 -95.3742 82° East 477 549 26,000 -1,020 Descending Minneapolis Center
06:21PM 44.4597 -95.1936 83° East 471 542 24,900 -1,620 Descending Minneapolis Center
06:22PM 44.4906 -95.0225 76° East 458 527 22,700 -2,160 Descending Minneapolis Center
06:23PM 44.5322 -94.8600 70° East 450 518 20,500 -2,340 Descending Minneapolis Center
06:24PM 44.5769 -94.6703 72° East 439 505 17,900 -2,280 Descending Minneapolis Center
06:25PM 44.6122 -94.5169 72° East 421 484 15,900 -1,920 Descending Minneapolis Center
06:26PM 44.6453 -94.3700 72° East 399 459 14,000 -1,920 Descending Minneapolis Center
06:27PM 44.6781 -94.2269 72° East 382 440 12,000 -1,500 Descending Minneapolis Center
06:28PM 44.7100 -94.0822 73° East 389 448 11,000 -540 Descending Minneapolis Center
06:29PM 44.7439 -93.9336 72° East 398 458 11,000  Level Minneapolis Center
06:30PM 44.7831 -93.7561 73° East 397 457 11,000  Level Minneapolis Center
06:31PM 44.8161 -93.6081 72° East 398 458 11,000 -300 Level Minneapolis Center
06:32PM 44.8481 -93.4617 73° East 391 450 10,500 -780 Descending Minneapolis Center
06:33PM 44.8425 -93.3358 94° East 331 381 9,400 -900 Descending Minneapolis Center
06:34PM 44.7925 -93.2408 127° Southeast 298 343 8,700 -960 Descending Minneapolis Center
06:35PM 44.7453 -93.1547 128° Southeast 265 305 7,500 -1,440 Descending Minneapolis Center
06:36PM 44.7039 -93.0769 127° Southeast 250 288 5,800 -1,380 Descending Minneapolis Center
06:37PM 44.6875 -92.9897 105° East 257 296 4,700 -900 Descending Minneapolis Center
06:38PM 44.7444 -92.9942 357° North 237 273 4,000 -720 Descending Minneapolis Center
06:39PM 44.8014 -93.0497 325° Northwest 210 242 3,300 -720 Descending Minneapolis Center